createdAt,value
2023-03-02T00:04:12.370Z,77.14
2023-03-02T00:09:12.599Z,77.17
2023-03-02T00:14:11.353Z,76.37
2023-03-02T00:19:10.110Z,76.21
2023-03-02T00:24:09.327Z,76.31
2023-03-02T00:29:09.884Z,76.31
2023-03-02T00:34:08.983Z,76.81
2023-03-02T00:39:09.415Z,76.23
2023-03-02T00:44:09.614Z,76.11
2023-03-02T00:49:08.567Z,76.76
2023-03-02T00:54:07.541Z,76.89
2023-03-02T00:59:07.301Z,78.12
2023-03-02T01:04:08.426Z,78.46
2023-03-02T01:09:07.375Z,79.49
2023-03-02T01:14:06.350Z,79.18
2023-03-02T01:19:05.304Z,79.01
2023-03-02T01:24:06.662Z,80.24
2023-03-02T01:29:06.106Z,80.47
2023-03-02T01:34:05.025Z,79.74
2023-03-02T01:39:05.510Z,79.24
2023-03-02T01:44:04.498Z,80.09
2023-03-02T01:49:06.283Z,81.92
2023-03-02T01:54:23.356Z,81.11
2023-03-02T01:59:29.318Z,81.73
2023-03-02T02:04:32.135Z,80.45
2023-03-02T02:09:35.016Z,79.55
2023-03-02T02:14:34.144Z,79.23
2023-03-02T02:19:46.217Z,80.95
2023-03-02T02:24:51.364Z,81.78
2023-03-02T02:29:53.424Z,83.46
2023-03-02T02:34:56.717Z,83.12
2023-03-02T02:39:56.884Z,82.24
2023-03-02T02:45:04.207Z,81.84
2023-03-02T02:50:03.763Z,82.97
2023-03-02T02:55:04.226Z,82.43
2023-03-02T03:05:37.409Z,81.71
2023-03-02T03:10:41.414Z,82.53
2023-03-02T03:15:42.094Z,83.17
2023-03-02T03:20:55.438Z,83.39
2023-03-02T03:25:54.605Z,82.62
2023-03-02T03:30:55.272Z,81.05
2023-03-02T03:35:54.404Z,80.02
2023-03-02T03:40:54.770Z,80.10
2023-03-02T03:45:55.186Z,81.11
2023-03-02T03:50:54.717Z,81.66
2023-03-02T03:55:54.432Z,80.37
2023-03-02T04:00:55.949Z,80.98
2023-03-02T04:05:54.887Z,81.44
2023-03-02T04:10:54.090Z,81.43
2023-03-02T04:15:54.397Z,81.10
2023-03-02T04:20:53.353Z,79.97
2023-03-02T04:25:52.326Z,79.00
2023-03-02T04:30:55.198Z,78.32
2023-03-02T04:35:55.389Z,78.25
2023-03-02T04:40:54.902Z,78.57
2023-03-02T04:45:55.662Z,78.33
2023-03-02T04:51:00.640Z,78.49
2023-03-02T04:55:59.849Z,79.21
2023-03-02T05:01:02.445Z,79.29
2023-03-02T05:06:02.390Z,79.61
2023-03-02T05:11:01.302Z,79.60
2023-03-02T05:16:02.272Z,79.99
2023-03-02T05:21:01.131Z,79.81
2023-03-02T05:26:00.223Z,80.33
2023-03-02T05:30:59.515Z,80.76
2023-03-02T05:36:01.427Z,80.23
2023-03-02T05:41:01.488Z,79.29
2023-03-02T05:46:01.145Z,79.51
2023-03-02T05:51:01.343Z,80.24
2023-03-02T05:56:00.330Z,80.63
2023-03-02T06:00:59.484Z,81.57
2023-03-02T06:05:58.298Z,81.82
2023-03-02T06:10:59.515Z,82.09
2023-03-02T06:15:58.456Z,81.53
2023-03-02T06:20:57.403Z,81.72
2023-03-02T06:25:56.491Z,81.06
2023-03-02T06:30:56.698Z,80.61
2023-03-02T06:35:55.860Z,80.34
2023-03-02T06:40:55.232Z,79.73
2023-03-02T06:45:54.135Z,79.29
2023-03-02T06:50:54.773Z,78.76
2023-03-02T06:55:54.172Z,79.28
2023-03-02T07:00:53.021Z,78.95
2023-03-02T07:05:57.741Z,79.43
2023-03-02T07:10:56.649Z,79.94
2023-03-02T07:15:56.374Z,79.66
2023-03-02T07:20:56.718Z,79.22
2023-03-02T07:25:55.504Z,79.15
2023-03-02T07:30:55.329Z,79.26
2023-03-02T07:35:54.288Z,80.01
2023-03-02T07:40:54.778Z,79.25
2023-03-02T07:45:53.661Z,78.47
2023-03-02T07:50:52.632Z,77.66
2023-03-02T07:55:51.494Z,78.28
2023-03-02T08:00:52.179Z,78.22
2023-03-02T08:05:50.963Z,79.36
2023-03-02T08:10:49.794Z,78.75
2023-03-02T08:15:48.586Z,77.90
2023-03-02T08:20:48.777Z,78.63
2023-03-02T08:25:48.037Z,78.37
2023-03-02T08:30:46.908Z,78.52
2023-03-02T08:35:45.902Z,78.94
2023-03-02T08:40:46.151Z,78.96
2023-03-02T08:45:44.908Z,79.58
2023-03-02T08:50:43.858Z,80.13
2023-03-02T08:55:42.701Z,79.51
2023-03-02T09:00:42.879Z,78.80
2023-03-02T09:05:41.758Z,78.47
2023-03-02T09:10:41.145Z,77.74
2023-03-02T09:15:40.687Z,78.24
2023-03-02T09:20:40.959Z,77.25
2023-03-02T09:25:39.729Z,78.42
2023-03-02T09:30:46.577Z,78.96
2023-03-02T09:35:47.980Z,79.57
2023-03-02T09:41:05.119Z,79.16
2023-03-02T09:46:16.060Z,78.31
2023-03-02T09:51:29.555Z,78.38
2023-03-02T09:56:28.830Z,77.30
2023-03-02T10:01:37.798Z,76.62
2023-03-02T10:06:40.442Z,76.57
2023-03-02T10:11:51.748Z,76.86
2023-03-02T10:16:54.184Z,76.76
2023-03-02T10:22:01.986Z,77.72
2023-03-02T10:27:12.829Z,76.80
2023-03-02T10:32:21.569Z,76.52
2023-03-02T10:37:25.455Z,75.15
2023-03-02T10:42:30.254Z,74.67
2023-03-02T10:47:30.965Z,73.43
2023-03-02T10:52:31.300Z,73.25
2023-03-02T10:57:35.578Z,73.87
2023-03-02T11:02:40.946Z,73.45
2023-03-02T11:07:41.589Z,71.96
2023-03-02T11:12:48.586Z,72.47
2023-03-02T11:17:50.515Z,71.74
2023-03-02T11:23:01.999Z,70.93
2023-03-02T11:28:10.536Z,71.01
2023-03-02T11:33:16.417Z,69.91
2023-03-02T11:38:22.416Z,67.65
2023-03-02T11:43:21.311Z,67.51
2023-03-02T11:48:26.308Z,67.90
2023-03-02T11:53:31.801Z,67.96
2023-03-02T11:58:33.077Z,66.59
2023-03-02T12:03:41.561Z,65.70
2023-03-02T12:08:44.273Z,64.29
2023-03-02T12:13:43.877Z,62.97
2023-03-02T12:18:45.517Z,61.96
2023-03-02T12:24:00.065Z,61.49
2023-03-02T12:29:03.746Z,59.21
2023-03-02T12:34:08.074Z,60.09
2023-03-02T12:39:31.565Z,59.88
2023-03-02T12:44:44.022Z,59.16
2023-03-02T12:49:49.631Z,59.38
2023-03-02T12:55:01.793Z,58.55
2023-03-02T13:00:02.650Z,58.04
2023-03-02T13:05:03.576Z,57.62
2023-03-02T13:10:09.874Z,57.72
2023-03-02T13:15:16.808Z,58.64
2023-03-02T13:20:16.496Z,58.21
2023-03-02T13:25:26.369Z,58.63
2023-03-02T13:30:28.248Z,58.07
2023-03-02T13:35:29.269Z,56.97
2023-03-02T13:40:51.834Z,56.45
2023-03-02T13:45:56.771Z,57.73
2023-03-02T13:51:05.328Z,57.65
2023-03-02T13:56:06.095Z,57.09
2023-03-02T14:01:06.555Z,58.01
2023-03-02T14:06:07.124Z,58.35
2023-03-02T14:11:08.698Z,59.00
2023-03-02T14:16:08.715Z,57.97
2023-03-02T14:21:11.925Z,59.01
2023-03-02T14:26:29.346Z,58.92
2023-03-02T14:31:29.614Z,61.50
2023-03-02T14:36:31.964Z,61.96
2023-03-02T14:41:34.416Z,61.63
2023-03-02T14:46:38.514Z,63.45
2023-03-02T14:51:40.412Z,62.03
2023-03-02T14:56:45.171Z,61.42
2023-03-02T15:01:45.640Z,61.38
2023-03-02T15:06:45.730Z,61.71
2023-03-02T15:11:44.538Z,61.92
2023-03-02T15:16:43.275Z,62.20
2023-03-02T15:21:45.841Z,62.78
2023-03-02T15:26:44.866Z,62.92
2023-03-02T15:31:43.725Z,62.97
2023-03-02T15:36:44.012Z,62.87
2023-03-02T15:41:43.262Z,63.07
2023-03-02T15:46:42.127Z,63.73
2023-03-02T15:51:43.197Z,63.54
2023-03-02T15:56:49.721Z,64.73
2023-03-02T16:01:48.765Z,64.38
2023-03-02T16:06:51.078Z,63.85
2023-03-02T16:11:54.251Z,64.42
2023-03-02T16:16:53.130Z,64.62
2023-03-02T16:21:52.150Z,64.78
2023-03-02T16:26:53.773Z,64.95
2023-03-02T16:31:54.108Z,64.98
2023-03-02T16:36:53.032Z,64.96
2023-03-02T16:41:51.918Z,64.54
2023-03-02T16:46:50.773Z,65.50
2023-03-02T16:51:57.896Z,65.72
2023-03-02T16:56:56.643Z,66.07
2023-03-02T17:01:55.493Z,66.34
2023-03-02T17:07:01.656Z,66.11
2023-03-02T17:12:04.362Z,65.62
2023-03-02T17:17:09.672Z,65.24
2023-03-02T17:22:08.752Z,65.64
2023-03-02T17:27:23.724Z,66.17
2023-03-02T17:32:24.623Z,65.65
2023-03-02T17:37:25.827Z,65.89
2023-03-02T17:42:26.868Z,65.86
2023-03-02T17:47:25.978Z,66.01
2023-03-02T17:52:24.947Z,65.66
2023-03-02T17:57:25.169Z,65.69
2023-03-02T18:02:23.950Z,65.95
2023-03-02T18:07:22.708Z,66.07
2023-03-02T18:12:21.629Z,66.19
2023-03-02T18:17:21.849Z,66.12
2023-03-02T18:22:22.121Z,65.78
2023-03-02T18:27:21.355Z,66.63
2023-03-02T18:32:21.635Z,67.81
2023-03-02T18:37:20.717Z,67.74
2023-03-02T18:42:19.812Z,68.19
2023-03-02T18:47:19.527Z,68.56
2023-03-02T18:52:20.197Z,67.93
2023-03-02T18:57:19.206Z,67.86
2023-03-02T19:02:18.211Z,67.53
2023-03-02T19:07:23.898Z,67.35
2023-03-02T19:12:22.736Z,67.26
2023-03-02T19:17:21.812Z,66.92
2023-03-02T19:22:22.012Z,66.75
2023-03-02T19:27:21.201Z,66.58
2023-03-02T19:32:20.853Z,66.77
2023-03-02T19:37:21.224Z,66.76
2023-03-02T19:42:22.058Z,66.71
2023-03-02T19:47:21.943Z,66.81
2023-03-02T19:52:22.275Z,66.78
2023-03-02T19:57:21.418Z,66.88
2023-03-02T20:02:20.451Z,67.35
2023-03-02T20:07:19.465Z,67.32
2023-03-02T20:12:20.043Z,67.50
2023-03-02T20:17:19.713Z,67.64
2023-03-02T20:22:18.828Z,68.06
2023-03-02T20:27:21.314Z,68.67
2023-03-02T20:32:20.303Z,68.67
2023-03-02T20:37:19.072Z,67.94
2023-03-02T20:42:19.317Z,68.41
2023-03-02T20:47:20.356Z,68.33
2023-03-02T20:52:20.052Z,68.25
2023-03-02T20:57:23.148Z,68.45
2023-03-02T21:02:23.207Z,68.20
2023-03-02T21:07:22.007Z,68.28
2023-03-02T21:12:22.238Z,68.03
2023-03-02T21:17:23.462Z,68.05
2023-03-02T21:22:22.354Z,68.70
2023-03-02T21:27:22.789Z,68.34
2023-03-02T21:32:21.667Z,68.29
2023-03-02T21:37:20.503Z,68.63
2023-03-02T21:42:19.576Z,69.09
2023-03-02T21:47:19.752Z,69.08
2023-03-02T21:52:18.526Z,69.22
2023-03-02T21:57:17.418Z,68.81
2023-03-02T22:02:16.276Z,68.54
2023-03-02T22:07:16.403Z,68.53
2023-03-02T22:12:15.737Z,68.94
2023-03-02T22:17:18.569Z,68.75
2023-03-02T22:22:23.160Z,68.63
2023-03-02T22:27:26.375Z,68.32
2023-03-02T22:32:27.524Z,68.31
2023-03-02T22:37:29.726Z,68.31
2023-03-02T22:42:31.394Z,68.25
2023-03-02T22:47:30.540Z,68.34
2023-03-02T22:52:39.429Z,67.83
2023-03-02T22:57:38.329Z,67.64
2023-03-02T23:02:41.531Z,67.40
2023-03-02T23:07:41.629Z,67.44
2023-03-02T23:12:40.677Z,67.23
2023-03-02T23:17:41.598Z,67.66
2023-03-02T23:22:42.626Z,67.62
2023-03-02T23:27:41.564Z,67.46
2023-03-02T23:32:40.460Z,67.28
2023-03-02T23:37:39.370Z,67.31
2023-03-02T23:42:39.583Z,67.57
2023-03-02T23:47:38.516Z,67.53
2023-03-02T23:52:37.280Z,67.31
2023-03-02T23:57:38.657Z,67.23
